createdAt,value
2019-05-10T00:03:32.969Z,66
2019-05-10T00:08:42.991Z,67
2019-05-10T00:18:48.261Z,68
2019-05-10T00:23:53.235Z,68
2019-05-10T00:28:58.198Z,66
2019-05-10T00:34:08.190Z,65
2019-05-10T00:39:19.789Z,64
2019-05-10T00:44:23.153Z,64
2019-05-10T00:49:28.185Z,64
2019-05-10T00:54:33.156Z,63
2019-05-10T00:59:38.280Z,64
2019-05-10T01:04:48.179Z,64
2019-05-10T01:09:58.113Z,64
2019-05-10T01:15:03.176Z,64
2019-05-10T01:20:08.184Z,64
2019-05-10T01:25:13.399Z,63
2019-05-10T01:30:18.434Z,62
2019-05-10T01:35:23.225Z,62
2019-05-10T01:40:33.160Z,62
2019-05-10T01:45:43.167Z,62
2019-05-10T01:50:48.161Z,63
2019-05-10T02:00:48.292Z,64
2019-05-10T02:05:53.236Z,65
2019-05-10T02:10:58.319Z,66
2019-05-10T02:16:08.270Z,67
2019-05-10T02:21:18.249Z,68
2019-05-10T02:26:23.261Z,68
2019-05-10T02:31:28.483Z,67
2019-05-10T02:36:33.290Z,66
2019-05-10T02:41:38.259Z,66
2019-05-10T02:46:48.294Z,67
2019-05-10T02:51:58.267Z,68
2019-05-10T02:57:03.305Z,69
2019-05-10T03:02:08.278Z,70
2019-05-10T03:07:13.254Z,69
2019-05-10T03:12:18.252Z,69
2019-05-10T03:17:23.259Z,69
2019-05-10T03:22:33.245Z,70
2019-05-10T03:27:43.516Z,70
2019-05-10T03:32:48.327Z,69
2019-05-10T03:37:53.187Z,68
2019-05-10T03:42:58.254Z,69
2019-05-10T03:48:08.252Z,70
2019-05-10T03:53:18.206Z,71
2019-05-10T03:58:23.213Z,69
2019-05-10T04:03:28.225Z,69
2019-05-10T04:08:33.257Z,68
2019-05-10T04:13:38.266Z,69
2019-05-10T04:18:48.232Z,69
2019-05-10T04:23:58.243Z,69
2019-05-10T04:29:03.234Z,69
2019-05-10T04:34:08.302Z,68
2019-05-10T04:39:13.296Z,68
2019-05-10T04:44:18.190Z,68
2019-05-10T04:49:23.226Z,68
2019-05-10T04:54:33.205Z,67
2019-05-10T04:59:43.170Z,67
2019-05-10T05:04:48.286Z,67
2019-05-10T05:09:53.255Z,67
2019-05-10T05:19:53.334Z,64
2019-05-10T05:25:03.669Z,65
2019-05-10T05:30:03.424Z,65
2019-05-10T05:35:15.741Z,63
2019-05-10T05:40:23.425Z,63
2019-05-10T05:45:35.589Z,61
2019-05-10T05:50:33.330Z,58
2019-05-10T05:55:38.420Z,54
2019-05-10T06:00:46.935Z,56
2019-05-10T06:07:18.621Z,57
2019-05-10T06:11:18.306Z,59
2019-05-10T06:16:28.396Z,59
2019-05-10T06:21:38.325Z,61
2019-05-10T06:26:43.333Z,61
2019-05-10T06:31:48.324Z,60
2019-05-10T06:36:53.314Z,58
2019-05-10T06:41:58.645Z,58
2019-05-10T06:47:11.469Z,57
2019-05-10T06:52:27.633Z,55
2019-05-10T06:53:33.588Z,55
2019-05-10T06:57:23.309Z,56
2019-05-10T07:02:32.779Z,56
2019-05-10T07:08:58.124Z,57
2019-05-10T07:11:01.849Z,57
2019-05-10T07:12:38.956Z,58
2019-05-10T07:17:48.274Z,60
2019-05-10T07:23:05.952Z,60
2019-05-10T07:24:24.846Z,60
2019-05-10T07:26:28.713Z,60
2019-05-10T07:28:03.336Z,59
2019-05-10T07:33:08.333Z,60
2019-05-10T07:38:13.259Z,57
2019-05-10T07:43:28.940Z,56
2019-05-10T07:44:21.582Z,56
2019-05-10T07:53:25.208Z,54
2019-05-10T07:58:23.414Z,51
2019-05-10T08:03:30.082Z,51
2019-05-10T08:08:39.411Z,49
2019-05-10T08:13:48.858Z,52
2019-05-10T08:19:00.876Z,55
2019-05-10T08:24:04.998Z,54
2019-05-10T08:25:07.829Z,54
2019-05-10T08:29:13.316Z,53
2019-05-10T08:30:29.059Z,53
2019-05-10T08:32:34.830Z,53
2019-05-10T08:34:08.400Z,53
2019-05-10T08:39:18.392Z,54
2019-05-10T08:44:28.483Z,51
2019-05-10T08:50:57.524Z,50
2019-05-10T08:53:02.125Z,50
2019-05-10T08:54:38.556Z,49
2019-05-10T08:59:43.384Z,51
2019-05-10T09:04:52.758Z,52
2019-05-10T09:09:53.721Z,52
2019-05-10T09:15:13.029Z,51
2019-05-10T09:16:17.737Z,51
2019-05-10T09:20:26.263Z,52
2019-05-10T09:21:25.741Z,52
2019-05-10T09:25:28.725Z,51
2019-05-10T09:26:32.536Z,51
2019-05-10T09:30:23.478Z,52
2019-05-10T09:35:28.454Z,51
2019-05-10T09:40:33.482Z,52
2019-05-10T09:45:43.527Z,52
2019-05-10T09:51:00.598Z,56
2019-05-10T09:52:18.107Z,56
2019-05-10T09:56:03.411Z,58
2019-05-10T10:02:19.069Z,57
2019-05-10T10:06:11.624Z,55
2019-05-10T10:11:18.626Z,54
2019-05-10T10:16:23.423Z,53
2019-05-10T10:21:39.056Z,51
2019-05-10T10:26:38.381Z,48
2019-05-10T10:32:52.682Z,48
2019-05-10T10:41:43.559Z,49
2019-05-10T10:46:48.599Z,47
2019-05-10T10:51:53.610Z,47
2019-05-10T10:57:03.603Z,46
2019-05-10T11:03:18.009Z,48
2019-05-10T11:07:18.567Z,49
2019-05-10T11:12:24.430Z,49
2019-05-10T11:17:30.966Z,50
2019-05-10T11:22:33.598Z,48
2019-05-10T11:27:58.162Z,47
2019-05-10T11:28:55.890Z,47
2019-05-10T11:32:53.590Z,47
2019-05-10T11:38:01.409Z,46
2019-05-10T11:43:03.623Z,44
2019-05-10T11:48:11.067Z,43
2019-05-10T11:53:17.756Z,43
2019-05-10T11:59:41.439Z,44
2019-05-10T12:03:33.648Z,44
2019-05-10T12:08:42.164Z,42
2019-05-10T12:13:43.665Z,43
2019-05-10T12:23:55.620Z,51
2019-05-10T12:28:51.239Z,51
2019-05-10T12:33:53.793Z,52
2019-05-10T12:39:03.838Z,55
2019-05-10T12:44:13.818Z,56
2019-05-10T12:49:21.246Z,58
2019-05-10T12:59:18.901Z,58
2019-05-10T13:05:50.210Z,56
2019-05-10T13:07:40.463Z,56
2019-05-10T13:10:45.836Z,54
2019-05-10T13:14:45.998Z,54
2019-05-10T13:15:44.284Z,54
2019-05-10T13:19:58.282Z,53
2019-05-10T13:21:19.334Z,53
2019-05-10T13:23:18.456Z,53
2019-05-10T13:24:53.969Z,51
2019-05-10T13:29:58.965Z,49
2019-05-10T13:35:03.990Z,49
2019-05-10T13:40:08.973Z,49
2019-05-10T13:45:37.533Z,48
2019-05-10T13:46:39.239Z,48
2019-05-10T13:50:43.979Z,46
2019-05-10T13:55:53.919Z,46
2019-05-10T14:01:12.943Z,46
2019-05-10T14:04:39.898Z,46
2019-05-10T14:06:08.937Z,45
2019-05-10T14:11:13.978Z,44
2019-05-10T14:16:22.825Z,45
2019-05-10T14:21:23.894Z,45
2019-05-10T14:26:33.893Z,49
2019-05-10T14:31:43.873Z,49
2019-05-10T14:36:48.957Z,48
2019-05-10T14:41:53.910Z,47
2019-05-10T14:46:58.911Z,49
2019-05-10T14:52:03.960Z,50
2019-05-10T14:57:13.877Z,49
2019-05-10T15:02:25.370Z,49
2019-05-10T15:07:28.867Z,46
2019-05-10T15:12:33.917Z,45
2019-05-10T15:17:39.135Z,44
2019-05-10T15:22:43.903Z,44
2019-05-10T15:28:00.092Z,46
2019-05-10T15:33:03.970Z,48
2019-05-10T15:38:08.868Z,49
2019-05-10T15:43:19.133Z,49
2019-05-10T15:48:18.893Z,48
2019-05-10T15:53:27.379Z,49
2019-05-10T15:58:42.029Z,51
2019-05-10T16:03:43.979Z,53
2019-05-10T16:08:48.924Z,51
2019-05-10T16:13:59.938Z,51
2019-05-10T16:18:58.819Z,52
2019-05-10T16:29:03.592Z,51
2019-05-10T16:34:04.100Z,51
2019-05-10T16:39:09.053Z,51
2019-05-10T16:44:21.164Z,52
2019-05-10T16:49:29.081Z,52
2019-05-10T16:54:34.054Z,52
2019-05-10T16:59:39.066Z,53
2019-05-10T17:04:44.059Z,55
2019-05-10T17:09:54.547Z,56
2019-05-10T17:15:03.352Z,56
2019-05-10T17:20:15.922Z,55
2019-05-10T17:25:14.042Z,55
2019-05-10T17:30:27.693Z,55
2019-05-10T17:31:45.421Z,55
2019-05-10T17:33:49.572Z,55
2019-05-10T17:35:24.128Z,53
2019-05-10T17:40:29.014Z,52
2019-05-10T17:45:42.413Z,53
2019-05-10T17:50:49.037Z,54
2019-05-10T17:55:59.349Z,54
2019-05-10T18:00:59.103Z,54
2019-05-10T18:06:04.070Z,55
2019-05-10T18:11:09.161Z,56
2019-05-10T18:16:29.042Z,57
2019-05-10T18:21:44.056Z,58
2019-05-10T18:26:54.088Z,59
2019-05-10T18:32:04.042Z,59
2019-05-10T18:37:09.022Z,59
2019-05-10T18:42:25.143Z,58
2019-05-10T18:43:20.437Z,58
2019-05-10T18:47:19.065Z,59
2019-05-10T18:52:24.041Z,59
2019-05-10T18:57:34.025Z,59
2019-05-10T19:02:44.032Z,59
2019-05-10T19:08:55.263Z,59
2019-05-10T19:13:04.246Z,59
2019-05-10T19:14:11.514Z,59
2019-05-10T19:17:58.991Z,60
2019-05-10T19:23:05.811Z,60
2019-05-10T19:28:14.281Z,61
2019-05-10T19:33:29.505Z,61
2019-05-10T19:34:33.324Z,61
2019-05-10T19:38:29.099Z,62
2019-05-10T19:43:34.011Z,62
2019-05-10T19:48:39.027Z,62
2019-05-10T19:58:39.257Z,63
2019-05-10T20:03:44.366Z,62
2019-05-10T20:08:49.348Z,62
2019-05-10T20:13:59.401Z,62
2019-05-10T20:19:09.660Z,62
2019-05-10T20:24:14.384Z,61
2019-05-10T20:29:19.316Z,61
2019-05-10T20:39:19.446Z,60
2019-05-10T20:44:24.466Z,60
2019-05-10T20:49:29.524Z,60
2019-05-10T20:54:39.409Z,60
2019-05-10T20:59:49.445Z,59
2019-05-10T21:04:54.468Z,59
2019-05-10T21:09:59.415Z,59
2019-05-10T21:15:04.492Z,60
2019-05-10T21:20:09.477Z,62
2019-05-10T21:25:19.395Z,61
2019-05-10T21:30:29.501Z,62
2019-05-10T21:35:34.638Z,63
2019-05-10T21:40:39.434Z,63
2019-05-10T21:45:44.535Z,63
2019-05-10T21:50:49.404Z,63
2019-05-10T21:55:59.400Z,63
2019-05-10T22:01:09.388Z,64
2019-05-10T22:06:14.363Z,64
2019-05-10T22:11:19.372Z,64
2019-05-10T22:21:19.634Z,65
2019-05-10T22:26:24.631Z,64
2019-05-10T22:31:29.638Z,64
2019-05-10T22:36:39.655Z,64
2019-05-10T22:41:53.345Z,65
2019-05-10T22:46:54.632Z,65
2019-05-10T22:51:59.626Z,66
2019-05-10T23:01:59.901Z,66
2019-05-10T23:07:04.890Z,67
2019-05-10T23:12:09.847Z,66
2019-05-10T23:17:19.807Z,65
2019-05-10T23:22:29.873Z,66
2019-05-10T23:27:35.061Z,66
2019-05-10T23:32:39.858Z,66
2019-05-10T23:42:40.273Z,67
2019-05-10T23:47:45.082Z,66
2019-05-10T23:52:50.063Z,66
2019-05-10T23:58:00.041Z,65
